Flight Track Log - Related Links

Times and Time Zones

All times are in EST time to prevent confusion due to time zone crossing. See the CDG1157 flight status page for this flight to view local times or setup timezone preferences in your user account.

Time Position Orientation Groundspeed Altitude Reporting Facility
EST Latitude Longitude Course Direction KTS MPH feet Rate Location/Type
Wed 04:28:00 AM 37.4207 117.1095 351° North  Level Estimated
Wed 04:29:00 AM 37.4720 117.0998 351° North  Level Estimated
Wed 04:30:00 AM 37.5233 117.0900 351° North  Level Estimated
Wed 04:31:00 AM 37.5746 117.0802 351° North  Level Estimated
Wed 04:32:00 AM 37.6258 117.0704 351° North  Level Estimated
Wed 04:33:00 AM 37.6771 117.0606 351° North  Level Estimated
Wed 04:34:00 AM 37.7284 117.0508 351° North  Level Estimated
Wed 04:35:00 AM 37.7797 117.0409 351° North  Level Estimated
Wed 04:36:00 AM 37.8310 117.0311 351° North  Level Estimated
Wed 04:37:00 AM 37.8822 117.0212 351° North  Level Estimated
Wed 04:38:00 AM 37.9335 117.0113 351° North  Level Estimated
Wed 04:39:00 AM 37.9848 117.0014 351° North  Level Estimated
Wed 04:40:00 AM 38.0360 116.9915 351° North  Level Estimated
Wed 04:41:00 AM 38.0873 116.9816 351° North  Level Estimated
Wed 04:42:00 AM 38.1386 116.9717 351° North  Level Estimated
Wed 04:43:00 AM 38.1899 116.9617 351° North  Level Estimated
Wed 04:44:00 AM 38.2411 116.9518 351° North  Level Estimated
Wed 04:45:00 AM 38.2924 116.9418 351° North  Level Estimated
Wed 04:46:00 AM 38.3437 116.9318 351° North  Level Estimated
Wed 04:47:00 AM 38.3949 116.9218 351° North  Level Estimated
Wed 04:48:00 AM 38.4462 116.9118 351° North  Level Estimated
Wed 04:49:00 AM 38.4975 116.9017 351° North  Level Estimated
Wed 04:50:00 AM 38.5487 116.8917 351° North  Level Estimated
Wed 04:51:00 AM 38.6000 116.8816 351° North  Level Estimated
Wed 04:52:00 AM 38.6513 116.8715 351° North  Level Estimated
Wed 04:53:00 AM 38.7025 116.8614 351° North  Level Estimated
Wed 04:54:00 AM 38.7538 116.8513 351° North  Level Estimated
Wed 04:55:00 AM 38.8050 116.8412 351° North  Level Estimated
Wed 04:56:00 AM 38.8563 116.8311 351° North  Level Estimated
Wed 04:57:00 AM 38.9076 116.8209 351° North  Level Estimated
Wed 04:58:00 AM 38.9588 116.8107 351° North  Level Estimated
Wed 04:59:00 AM 39.0101 116.8006 351° North  Level Estimated
Wed 05:00:00 AM 39.0613 116.7904 351° North  Level Estimated
Wed 05:01:00 AM 39.1126 116.7802 351° North  Level Estimated
Wed 05:02:00 AM 39.1638 116.7699 351° North  Level Estimated
Wed 05:03:00 AM 39.2151 116.7597 351° North  Level Estimated
Wed 05:04:00 AM 39.2663 116.7495 351° North  Level Estimated
Wed 05:05:00 AM 39.3176 116.7392 351° North  Level Estimated
Wed 05:06:00 AM 39.3689 116.7289 351° North  Level Estimated
Wed 05:07:00 AM 39.4201 116.7186 351° North  Level Estimated
Wed 05:08:00 AM 39.4714 116.7083 351° North  Level Estimated
Wed 05:09:00 AM 39.5226 116.6980 351° North  Level Estimated
Wed 05:10:00 AM 39.5738 116.6876 351° North  Level Estimated
Wed 05:11:00 AM 39.6251 116.6772 351° North  Level Estimated
Wed 05:12:00 AM 39.6763 116.6669 351° North  Level Estimated
Wed 05:13:00 AM 39.7276 116.6565 351° North  Level Estimated
Wed 05:14:00 AM 39.7788 116.6461 351° North  Level Estimated
Wed 05:15:00 AM 39.8301 116.6356 351° North  Level Estimated
Wed 05:16:00 AM 39.8813 116.6252 351° North  Level Estimated
Wed 05:17:00 AM 39.9325 116.6148 351° North  Level Estimated
Wed 05:18:00 AM 39.9838 116.6043 351° North  Level Estimated
Wed 05:19:00 AM 40.0350 116.5938 351° North  Level Estimated
Wed 05:20:00 AM 40.0801 116.5846 351° North  Level Estimated
Wed 05:21:00 AM 40.0801 116.5846 288° West  Level Estimated
Wed 05:22:00 AM 40.0801 116.5846 288° West  Level Estimated
Wed 05:23:00 AM 40.0801 116.5846 288° West  Level Estimated
Wed 05:24:00 AM 40.0801 116.5846 288° West  Level Estimated
Wed 05:25:00 AM 40.0801 116.5846 288° West  Level Estimated
Wed 05:26:00 AM 40.0801 116.5846 288° West  Level Estimated
Wed 05:27:00 AM 40.0801 116.5846 288° West  Level Estimated
Wed 05:28:00 AM 40.0801 116.5846 288° West  Level Estimated
Wed 05:29:00 AM 40.0801 116.5846 288° West  Level Estimated
Wed 05:30:00 AM 40.0801 116.5846 288° West  Level Estimated
Wed 05:31:00 AM 40.0801 116.5846 288° West  Level Estimated
Wed 05:32:00 AM 40.0801 116.5846 288° West  Level Estimated
Wed 05:33:00 AM 40.0801 116.5846 288° West  Level Estimated
Wed 05:34:00 AM 40.0801 116.5846 288° West  Level Estimated
Wed 05:35:00 AM 40.0801 116.5846 288° West  Level Estimated
Wed 05:36:00 AM 40.0801 116.5846 288° West  Level Estimated

Login

Don't have an account? Register now (free) for customized features, flight alerts, and more!